Time;durP1;ratioP1;P1;durP2;ratioP2;P2;SDS_P1;SDS_P2;PMS_P1;PMS_P2;Temp;Humidity;BMP_temperature;BMP_pressure;BME280_temperature;BME280_humidity;BME280_pressure;Samples;Min_cycle;Max_cycle;Signal;HPM_P1;HPM_P2
2023/01/26 00:01:50;;;;;;;79.55;31.83;;;;;;;0.56;100.00;102400.44;4947772;28;20070;-58
2023/01/26 00:04:15;;;;;;;75.88;31.27;;;;;;;0.46;100.00;102375.06;4942870;29;20035;-59
2023/01/26 00:06:41;;;;;;;88.38;32.40;;;;;;;0.09;100.00;102317.69;4928314;29;20043;-59
2023/01/26 00:09:11;;;;;;;81.85;31.58;;;;;;;0.57;100.00;102396.16;4938380;29;20054;-59
2023/01/26 00:11:37;;;;;;;83.72;31.48;;;;;;;0.13;100.00;102316.09;4932393;29;20044;-59
2023/01/26 00:14:02;;;;;;;87.72;32.63;;;;;;;0.57;100.00;102396.16;4940384;29;20040;-59
2023/01/26 00:16:27;;;;;;;78.80;31.65;;;;;;;0.14;100.00;102310.97;4946323;28;20122;-59
2023/01/26 00:18:53;;;;;;;85.82;31.67;;;;;;;0.61;100.00;102408.38;4935036;29;20063;-59
2023/01/26 00:21:20;;;;;;;82.95;32.72;;;;;;;0.17;100.00;102308.50;4935544;29;20451;-59
2023/01/26 00:23:46;;;;;;;88.25;32.80;;;;;;;0.50;100.00;102358.78;4935012;29;20036;-59
2023/01/26 00:26:15;;;;;;;78.50;29.50;;;;;;;0.18;100.00;102307.63;4933921;29;20035;-59
2023/01/26 00:28:41;;;;;;;87.57;31.88;;;;;;;0.65;100.00;102391.19;4933708;29;20087;-59
2023/01/26 00:31:12;;;;;;;84.05;33.15;;;;;;;0.39;100.00;102335.94;4935431;29;20040;-59
2023/01/26 00:33:37;;;;;;;85.47;31.65;;;;;;;0.66;100.00;102377.44;4933741;29;20405;-59
2023/01/26 00:36:03;;;;;;;89.35;35.25;;;;;;;0.34;100.00;102328.03;4933641;29;20074;-59
2023/01/26 00:38:28;;;;;;;84.85;34.03;;;;;;;0.64;100.00;102386.88;4934512;29;20043;-59
2023/01/26 00:40:53;;;;;;;96.07;35.63;;;;;;;0.64;100.00;102367.03;4933626;29;20043;-59
2023/01/26 00:43:19;;;;;;;101.50;35.30;;;;;;;0.64;100.00;102367.03;4934630;29;20051;-59
2023/01/26 00:45:44;;;;;;;94.95;34.30;;;;;;;0.67;100.00;102368.81;4935033;29;20051;-60
2023/01/26 00:48:10;;;;;;;94.97;34.70;;;;;;;0.60;100.00;102348.72;4934960;29;20042;-59
2023/01/26 00:50:35;;;;;;;95.47;34.45;;;;;;;0.55;100.00;102346.84;4933858;29;20039;-59
2023/01/26 00:53:00;;;;;;;92.60;35.75;;;;;;;0.37;100.00;102316.91;4949823;28;20036;-58
2023/01/26 00:55:32;;;;;;;103.50;36.45;;;;;;;0.70;100.00;102369.78;4940101;29;20494;-58
2023/01/26 00:58:01;;;;;;;96.50;35.08;;;;;;;0.68;100.00;102361.09;4942285;28;20102;-59
2023/01/26 01:00:27;;;;;;;91.10;33.88;;;;;;;0.64;100.00;102348.00;4949158;29;20035;-59
2023/01/26 01:02:55;;;;;;;95.95;34.40;;;;;;;0.73;100.00;102353.47;4936325;29;20070;-60
2023/01/26 01:05:21;;;;;;;84.30;32.13;;;;;;;0.45;100.00;102302.47;4945314;29;20039;-58
2023/01/26 01:07:46;;;;;;;95.25;33.80;;;;;;;0.25;100.00;102257.81;4934575;29;20483;-59
2023/01/26 01:10:11;;;;;;;92.15;35.22;;;;;;;0.79;100.00;102356.25;4934582;29;20082;-61
2023/01/26 01:12:37;;;;;;;90.55;34.47;;;;;;;0.53;100.00;102308.78;4935038;29;20068;-58
2023/01/26 01:15:02;;;;;;;96.32;32.55;;;;;;;0.68;100.00;102335.19;4934236;29;20042;-58
2023/01/26 01:17:28;;;;;;;86.22;33.78;;;;;;;0.30;100.00;102257.94;4933299;29;20043;-58
2023/01/26 01:19:53;;;;;;;98.20;36.13;;;;;;;0.23;100.00;102249.13;4934207;29;20066;-58
2023/01/26 01:22:18;;;;;;;90.10;33.40;;;;;;;0.80;100.00;102348.53;4934558;29;20069;-58
2023/01/26 01:24:44;;;;;;;101.05;37.08;;;;;;;0.31;100.00;102260.59;4934483;29;20038;-59
2023/01/26 01:27:09;;;;;;;103.95;37.92;;;;;;;0.79;100.00;102341.56;4934187;29;20123;-58
2023/01/26 01:29:34;;;;;;;99.63;35.42;;;;;;;0.83;100.00;102340.84;4934327;29;20131;-59
2023/01/26 01:32:00;;;;;;;88.68;33.53;;;;;;;0.63;100.00;102308.25;4934553;29;20134;-58
2023/01/26 01:34:25;;;;;;;99.45;35.63;;;;;;;0.85;100.00;102346.06;4934717;29;20429;-59
2023/01/26 01:36:51;;;;;;;100.93;35.85;;;;;;;0.45;100.00;102282.63;4934471;29;20410;-58
2023/01/26 01:39:16;;;;;;;108.65;37.17;;;;;;;0.48;100.00;102287.03;4934067;29;20067;-59
2023/01/26 01:41:41;;;;;;;112.03;40.03;;;;;;;0.47;100.00;102280.09;4933905;29;20528;-58
2023/01/26 01:44:17;;;;;;;102.28;39.65;;;;;;;0.39;100.00;102260.84;4933191;29;20131;-59
2023/01/26 01:46:59;;;;;;;110.35;38.70;;;;;;;0.86;100.00;102353.00;4932747;29;20052;-58
2023/01/26 01:49:28;;;;;;;110.13;38.95;;;;;;;0.89;100.00;102379.03;4935763;29;20395;-59
2023/01/26 01:51:58;;;;;;;110.70;38.78;;;;;;;0.78;100.00;102323.38;4937981;29;20052;-58
2023/01/26 01:54:31;;;;;;;126.10;41.03;;;;;;;0.88;100.00;102366.88;4936544;29;20036;-59
2023/01/26 01:56:59;;;;;;;115.93;39.92;;;;;;;0.92;100.00;102348.91;4937987;29;20048;-58
2023/01/26 01:59:25;;;;;;;127.57;41.80;;;;;;;0.94;100.00;102344.63;4938085;29;20115;-59
2023/01/26 02:01:51;;;;;;;117.05;41.25;;;;;;;0.53;100.00;102269.91;4936732;29;20131;-59
2023/01/26 02:04:17;;;;;;;123.85;42.65;;;;;;;0.58;100.00;102286.50;4937657;29;20039;-58
2023/01/26 02:06:51;;;;;;;119.35;42.65;;;;;;;0.77;100.00;102324.22;4920539;29;20043;-59
2023/01/26 02:12:05;;;;;;;124.13;42.35;;;;;;;0.92;100.00;102342.84;4937676;29;20059;-58
2023/01/26 02:14:31;;;;;;;123.07;41.10;;;;;;;0.39;100.00;102246.19;4936221;29;20047;-58
2023/01/26 02:16:57;;;;;;;122.72;41.20;;;;;;;1.00;100.00;102356.91;4937355;29;20047;-59
2023/01/26 02:19:37;;;;;;;145.25;45.10;;;;;;;1.00;100.00;102347.41;4937341;29;20056;-58
2023/01/26 02:22:10;;;;;;;125.00;40.97;;;;;;;1.01;100.00;102345.72;4937383;29;20036;-60
2023/01/26 02:24:37;;;;;;;117.95;41.25;;;;;;;0.99;100.00;102340.47;4936266;29;20031;-59
2023/01/26 02:27:02;;;;;;;127.05;42.30;;;;;;;0.94;100.00;102335.97;4937347;29;20028;-57
2023/01/26 02:29:28;;;;;;;125.20;42.17;;;;;;;0.89;100.00;102324.59;4935983;29;20479;-59
2023/01/26 02:31:54;;;;;;;121.93;40.92;;;;;;;1.03;100.00;102331.94;4935807;29;20443;-58
2023/01/26 02:34:19;;;;;;;127.25;41.40;;;;;;;1.03;100.00;102336.25;4936096;29;20040;-58
2023/01/26 02:36:44;;;;;;;133.55;42.50;;;;;;;0.56;100.00;102272.59;4937018;29;20467;-58
2023/01/26 02:39:33;;;;;;;122.47;41.17;;;;;;;1.03;100.00;102337.13;4918607;29;20028;-59
2023/01/26 02:44:43;;;;;;;159.48;44.88;;;;;;;0.49;100.00;102263.78;4935916;29;20103;-58
2023/01/26 02:47:13;;;;;;;124.35;41.15;;;;;;;0.61;100.00;102285.72;4919874;29;20039;-57
2023/01/26 02:49:49;;;;;;;131.50;41.70;;;;;;;0.98;100.00;102351.69;4937302;29;20075;-58
2023/01/26 02:52:16;;;;;;;132.45;41.78;;;;;;;0.79;100.00;102319.97;4935730;29;20058;-58
2023/01/26 02:57:26;;;;;;;135.55;42.40;;;;;;;1.00;100.00;102354.31;4937171;29;20065;-59
2023/01/26 02:59:51;;;;;;;130.63;41.25;;;;;;;0.98;100.00;102349.09;4936032;29;20035;-58
2023/01/26 03:02:16;;;;;;;148.55;44.13;;;;;;;0.55;100.00;102273.44;4936894;29;20042;-59
2023/01/26 03:04:42;;;;;;;128.38;42.70;;;;;;;1.01;100.00;102351.78;4936779;29;20044;-59
2023/01/26 03:07:08;;;;;;;139.35;41.95;;;;;;;0.98;100.00;102356.88;4934648;29;20039;-59
2023/01/26 03:09:33;;;;;;;147.48;42.80;;;;;;;1.02;100.00;102368.22;4936294;29;20464;-58
2023/01/26 03:14:45;;;;;;;152.80;43.47;;;;;;;1.03;100.00;102351.81;4935473;29;20115;-58
2023/01/26 03:17:19;;;;;;;150.25;42.63;;;;;;;1.05;100.00;102350.16;4934729;29;20118;-57
2023/01/26 03:27:57;;;;;;;127.05;41.72;;;;;;;1.10;100.00;102357.25;4935693;29;20199;-59
2023/01/26 03:30:23;;;;;;;136.75;41.95;;;;;;;0.25;100.00;102206.03;4936102;29;20480;-58
2023/01/26 03:32:48;;;;;;;144.82;42.58;;;;;;;0.70;100.00;102286.84;4936884;29;20130;-58
2023/01/26 03:35:14;;;;;;;140.43;43.70;;;;;;;1.12;100.00;102354.69;4935905;28;20195;-58
2023/01/26 03:37:43;;;;;;;149.18;43.28;;;;;;;1.00;100.00;102334.44;4934744;29;20422;-57
2023/01/26 03:56:33;;;;;;;166.60;45.47;;;;;;;0.80;100.00;102275.94;4936042;29;20068;-59
2023/01/26 03:59:07;;;;;;;174.57;46.50;;;;;;;1.24;100.00;102356.75;4935856;29;20040;-59
2023/01/26 04:01:37;;;;;;;149.18;44.35;;;;;;;0.78;100.00;102271.56;4935645;29;20042;-58
2023/01/26 04:09:32;;;;;;;161.10;45.75;;;;;;;1.23;100.00;102355.88;4934814;29;20050;-58
2023/01/26 04:11:58;;;;;;;133.23;42.30;;;;;;;1.31;100.00;102369.09;4935356;29;20485;-60
2023/01/26 04:22:47;;;;;;;144.57;43.25;;;;;;;1.32;100.00;102353.56;4935154;29;20048;-59
2023/01/26 04:25:17;;;;;;;154.85;42.83;;;;;;;0.96;100.00;102285.06;4933958;29;20039;-58
2023/01/26 04:27:43;;;;;;;148.75;41.35;;;;;;;1.30;100.00;102355.22;4934517;29;20032;-59
2023/01/26 04:30:10;;;;;;;164.70;43.35;;;;;;;1.31;100.00;102351.81;4953260;29;20042;-59
2023/01/26 04:32:36;;;;;;;148.40;41.92;;;;;;;0.92;100.00;102276.31;4953116;29;20031;-58
2023/01/26 04:35:02;;;;;;;148.52;42.95;;;;;;;1.41;100.00;102360.72;4953050;29;20639;-58
2023/01/26 04:37:28;;;;;;;167.10;44.47;;;;;;;1.05;100.00;102285.34;4953941;28;20035;-59
2023/01/26 04:39:53;;;;;;;152.80;42.85;;;;;;;1.43;100.00;102346.09;4954035;28;20475;-60
2023/01/26 04:42:19;;;;;;;157.75;43.35;;;;;;;1.42;100.00;102347.81;4954495;28;20039;-58
2023/01/26 04:44:44;;;;;;;158.90;42.83;;;;;;;1.01;100.00;102271.41;4954165;28;20062;-59
2023/01/26 04:47:09;;;;;;;145.23;41.45;;;;;;;1.10;100.00;102287.22;4952940;29;20058;-59
2023/01/26 04:49:35;;;;;;;140.82;40.03;;;;;;;1.10;100.00;102282.03;4953823;28;20042;-58
2023/01/26 04:52:00;;;;;;;164.27;42.05;;;;;;;1.53;100.00;102355.88;4952839;29;20051;-58
2023/01/26 04:54:25;;;;;;;155.95;41.97;;;;;;;1.25;100.00;102302.34;4954025;28;20066;-63
2023/01/26 04:56:51;;;;;;;147.30;41.30;;;;;;;1.49;100.00;102333.31;4953688;29;20078;-63
2023/01/26 04:59:16;;;;;;;160.48;42.20;;;;;;;1.57;100.00;102350.84;4954078;28;20035;-58
2023/01/26 05:01:42;;;;;;;153.77;42.05;;;;;;;1.58;100.00;102346.50;4952690;29;20038;-58
2023/01/26 05:04:08;;;;;;;154.32;44.30;;;;;;;1.44;100.00;102322.78;4953856;28;20452;-59
2023/01/26 05:06:34;;;;;;;149.60;43.67;;;;;;;1.55;100.00;102334.34;4953864;28;20498;-60
2023/01/26 05:08:59;;;;;;;152.18;44.08;;;;;;;1.63;100.00;102355.31;4953562;28;20051;-58
2023/01/26 05:11:24;;;;;;;146.85;43.30;;;;;;;1.53;100.00;102336.00;4953858;28;20043;-58
2023/01/26 05:13:50;;;;;;;163.50;43.70;;;;;;;1.12;100.00;102264.81;4953733;28;20039;-58
2023/01/26 05:16:16;;;;;;;146.77;42.45;;;;;;;1.18;100.00;102263.22;4952395;29;20075;-59
2023/01/26 05:18:41;;;;;;;154.10;44.45;;;;;;;1.66;100.00;102356.25;4953393;28;20059;-58
2023/01/26 05:21:07;;;;;;;146.73;44.20;;;;;;;1.21;100.00;102277.16;4946401;28;20043;-58
2023/01/26 05:23:32;;;;;;;150.10;42.10;;;;;;;1.69;100.00;102358.94;4933979;29;20043;-58
2023/01/26 05:25:58;;;;;;;158.65;43.28;;;;;;;1.23;100.00;102266.81;4940915;29;20122;-59
2023/01/26 05:28:23;;;;;;;175.90;44.10;;;;;;;1.27;100.00;102268.66;4940624;29;20071;-58
2023/01/26 05:30:48;;;;;;;137.93;39.88;;;;;;;1.29;100.00;102273.06;4939442;29;20031;-58
2023/01/26 05:33:14;;;;;;;144.60;39.50;;;;;;;1.67;100.00;102337.28;4939251;29;20121;-58
2023/01/26 05:35:40;;;;;;;148.10;40.38;;;;;;;1.38;100.00;102278.50;4939346;29;20036;-58
2023/01/26 05:38:05;;;;;;;172.60;41.80;;;;;;;1.41;100.00;102288.97;4939244;29;20039;-59
2023/01/26 05:40:30;;;;;;;155.65;42.15;;;;;;;1.82;100.00;102362.78;4940813;29;20043;-59
2023/01/26 05:42:56;;;;;;;135.20;40.38;;;;;;;1.80;100.00;102356.66;4940768;29;20040;-58
2023/01/26 05:45:21;;;;;;;139.75;40.55;;;;;;;1.85;100.00;102356.78;4940559;29;20088;-58
2023/01/26 05:47:47;;;;;;;136.10;40.58;;;;;;;1.77;100.00;102341.00;4940423;29;20039;-58
2023/01/26 05:50:13;;;;;;;131.15;39.90;;;;;;;1.84;100.00;102353.28;4940603;29;20028;-59
2023/01/26 05:52:39;;;;;;;142.77;39.60;;;;;;;1.78;100.00;102340.16;4940404;29;20039;-58
2023/01/26 05:55:05;;;;;;;137.18;41.03;;;;;;;1.94;100.00;102359.63;4939409;29;20040;-58
2023/01/26 05:57:31;;;;;;;126.60;37.63;;;;;;;1.91;100.00;102359.53;4939108;29;20051;-58
2023/01/26 05:59:56;;;;;;;128.77;38.88;;;;;;;1.57;100.00;102292.88;4940637;29;20037;-58
2023/01/26 06:02:22;;;;;;;125.28;36.75;;;;;;;2.03;100.00;102371.16;4920035;29;20126;-58
2023/01/26 06:04:47;;;;;;;134.93;37.08;;;;;;;1.98;100.00;102354.56;4920962;29;20063;-58
2023/01/26 06:07:12;;;;;;;130.93;35.28;;;;;;;2.00;100.00;102352.00;4921251;29;20079;-59
2023/01/26 06:09:39;;;;;;;111.68;34.28;;;;;;;1.69;100.00;102304.44;4919784;29;20444;-58
2023/01/26 06:12:05;;;;;;;114.68;34.50;;;;;;;1.91;100.00;102330.97;4919809;29;20182;-58
2023/01/26 06:14:30;;;;;;;117.10;32.58;;;;;;;2.08;100.00;102353.97;4921166;29;20379;-58
2023/01/26 06:16:56;;;;;;;116.88;32.50;;;;;;;2.18;100.00;102362.88;4938075;29;20051;-58
2023/01/26 06:19:21;;;;;;;115.07;32.30;;;;;;;2.26;100.00;102364.84;4939933;29;20051;-58
2023/01/26 06:21:46;;;;;;;97.57;29.27;;;;;;;1.89;100.00;102285.94;4939956;29;20048;-58
2023/01/26 06:24:12;;;;;;;102.00;28.13;;;;;;;2.39;100.00;102383.34;4940445;29;20111;-58
2023/01/26 06:26:38;;;;;;;81.25;25.17;;;;;;;2.07;100.00;102295.06;4940121;29;20344;-58
2023/01/26 06:29:03;;;;;;;68.25;20.20;;;;;;;2.66;100.00;102387.47;4938912;29;20535;-58
2023/01/26 06:31:28;;;;;;;67.03;18.85;;;;;;;2.82;100.00;102379.22;4939937;29;20070;-59
2023/01/26 06:33:54;;;;;;;57.70;16.90;;;;;;;3.04;100.00;102379.69;4939238;29;20111;-57
2023/01/26 06:36:19;;;;;;;63.25;17.27;;;;;;;3.12;100.00;102357.34;4935961;29;20040;-57
2023/01/26 06:38:49;;;;;;;57.70;14.65;;;;;;;3.29;100.00;102356.88;4937247;29;20050;-56
2023/01/26 06:41:15;;;;;;;75.60;14.43;;;;;;;3.19;100.00;102328.00;4936782;29;20028;-58
2023/01/26 06:43:44;;;;;;;50.90;12.18;;;;;;;3.72;100.00;102389.00;4937128;29;20051;-57
2023/01/26 06:46:10;;;;;;;50.67;12.05;;;;;;;3.80;100.00;102410.84;4936996;29;20040;-58
2023/01/26 06:48:36;;;;;;;53.67;11.52;;;;;;;3.82;100.00;102407.41;4935779;29;20516;-59
2023/01/26 06:51:38;;;;;;;48.67;9.88;;;;;;;3.86;100.00;102388.41;4936753;29;20039;-57
2023/01/26 06:54:04;;;;;;;54.65;9.48;;;;;;;3.46;100.00;102310.38;4936606;29;20091;-55
2023/01/26 06:56:32;;;;;;;45.00;8.88;;;;;;;4.05;100.00;102418.31;4936736;29;20534;-59
2023/01/26 06:58:57;;;;;;;47.78;7.85;;;;;;;4.05;100.00;102407.00;4936814;29;20480;-57
2023/01/26 07:01:24;;;;;;;45.17;6.72;;;;;;;4.03;100.00;102393.09;4936690;29;20042;-57
2023/01/26 07:03:51;;;;;;;42.53;6.18;;;;;;;3.81;100.00;102350.09;4935322;29;20115;-57
2023/01/26 07:06:17;;;;;;;36.10;6.82;;;;;;;4.19;100.00;102431.59;4919630;29;20031;-63
2023/01/26 07:08:42;;;;;;;42.03;6.38;;;;;;;4.20;100.00;102434.25;4934605;29;20028;-58
2023/01/26 07:11:08;;;;;;;55.65;6.63;;;;;;;4.20;100.00;102416.00;4934581;29;20138;-57
2023/01/26 07:13:34;;;;;;;43.33;6.25;;;;;;;4.22;100.00;102411.69;4936567;29;20063;-58
2023/01/26 07:16:08;;;;;;;43.72;7.22;;;;;;;3.73;100.00;102330.84;4935087;29;20039;-58
2023/01/26 07:18:34;;;;;;;35.55;5.05;;;;;;;4.17;100.00;102417.69;4934988;29;20035;-58
2023/01/26 07:21:03;;;;;;;40.92;5.80;;;;;;;4.08;100.00;102414.91;4936536;29;20111;-59
2023/01/26 07:23:28;;;;;;;31.13;5.35;;;;;;;3.68;100.00;102343.78;4936370;29;20046;-59
2023/01/26 07:25:54;;;;;;;40.63;5.70;;;;;;;4.08;100.00;102434.00;4936504;29;20036;-58
2023/01/26 07:28:19;;;;;;;42.28;5.45;;;;;;;3.64;100.00;102352.41;4935972;29;20035;-59
2023/01/26 07:30:44;;;;;;;37.30;5.32;;;;;;;3.99;100.00;102439.03;4935917;29;20039;-58
2023/01/26 07:33:10;;;;;;;47.05;6.00;;;;;;;3.91;100.00;102438.03;4934906;29;20448;-58
2023/01/26 07:35:35;;;;;;;34.10;6.28;;;;;;;3.87;100.00;102430.97;4936086;29;20040;-57
2023/01/26 07:38:03;;;;;;;38.63;6.28;;;;;;;3.47;100.00;102365.91;4934709;29;20502;-58
2023/01/26 07:40:28;;;;;;;38.22;5.85;;;;;;;3.81;100.00;102447.38;4935675;29;20051;-58
2023/01/26 07:42:55;;;;;;;33.00;5.70;;;;;;;3.51;100.00;102402.44;4934666;29;20032;-57
2023/01/26 07:45:20;;;;;;;34.42;5.60;;;;;;;3.39;100.00;102396.97;4935150;29;20036;-57
2023/01/26 07:47:46;;;;;;;39.55;5.68;;;;;;;3.31;100.00;102386.41;4918490;29;20171;-58
2023/01/26 07:50:12;;;;;;;37.15;5.05;;;;;;;3.62;100.00;102466.03;4935859;29;20340;-58
2023/01/26 07:52:38;;;;;;;33.13;6.75;;;;;;;3.53;100.00;102445.03;4934512;29;20127;-58
2023/01/26 07:55:04;;;;;;;35.28;5.32;;;;;;;3.37;100.00;102420.38;4935727;29;20067;-58
2023/01/26 07:57:30;;;;;;;34.90;5.45;;;;;;;3.21;100.00;102386.19;4918479;29;20263;-58
2023/01/26 07:59:56;;;;;;;37.00;5.78;;;;;;;3.19;100.00;102398.25;4934047;29;20474;-59
2023/01/26 08:02:21;;;;;;;39.05;5.10;;;;;;;3.62;100.00;102465.19;4935663;29;20079;-58
2023/01/26 08:04:47;;;;;;;29.13;4.97;;;;;;;3.25;100.00;102421.81;4934058;29;20032;-58
2023/01/26 08:07:13;;;;;;;29.42;5.60;;;;;;;3.13;100.00;102400.72;4935205;29;20042;-57
2023/01/26 08:09:38;;;;;;;29.13;4.82;;;;;;;3.54;100.00;102467.59;4934681;29;20197;-57
2023/01/26 08:12:04;;;;;;;33.97;6.35;;;;;;;3.17;100.00;102415.56;4933041;29;20043;-58
2023/01/26 08:14:29;;;;;;;27.90;5.57;;;;;;;3.48;100.00;102471.78;4917322;29;20124;-58
2023/01/26 08:16:55;;;;;;;37.90;6.53;;;;;;;3.58;100.00;102484.16;4933856;29;20341;-56
2023/01/26 08:19:20;;;;;;;33.42;5.45;;;;;;;3.29;100.00;102442.75;4934395;29;20086;-58
2023/01/26 08:21:46;;;;;;;29.00;5.43;;;;;;;3.57;100.00;102488.50;4934490;29;20070;-58
2023/01/26 08:24:11;;;;;;;42.65;6.32;;;;;;;3.62;100.00;102483.41;4935114;29;20071;-57
2023/01/26 08:26:37;;;;;;;29.38;6.07;;;;;;;3.26;100.00;102428.78;4935039;29;20059;-58
2023/01/26 08:29:02;;;;;;;39.15;5.60;;;;;;;3.64;100.00;102490.41;4933831;29;20500;-57
2023/01/26 08:31:28;;;;;;;40.85;5.57;;;;;;;3.56;100.00;102465.03;4935483;29;20376;-58
2023/01/26 08:33:54;;;;;;;35.80;5.75;;;;;;;3.58;100.00;102476.34;4933557;29;20032;-58
2023/01/26 08:36:20;;;;;;;28.77;6.40;;;;;;;3.67;100.00;102497.41;4935256;29;20038;-61
2023/01/26 08:38:45;;;;;;;26.90;5.30;;;;;;;3.65;100.00;102486.94;4933959;29;20043;-61
2023/01/26 08:41:11;;;;;;;33.70;5.85;;;;;;;3.25;100.00;102417.50;4935632;29;20044;-61
2023/01/26 08:43:37;;;;;;;37.67;6.03;;;;;;;3.71;100.00;102489.66;4935194;29;20035;-60
2023/01/26 08:46:03;;;;;;;33.75;5.18;;;;;;;3.74;100.00;102502.75;4934358;29;20391;-60
2023/01/26 08:48:30;;;;;;;36.10;5.50;;;;;;;3.30;100.00;102417.59;4935693;29;20040;-60
2023/01/26 08:50:59;;;;;;;30.50;5.50;;;;;;;3.67;100.00;102486.97;4918162;29;20035;-60
2023/01/26 08:53:24;;;;;;;35.55;4.97;;;;;;;3.61;100.00;102455.59;4935190;29;20300;-60
2023/01/26 08:55:50;;;;;;;32.67;6.13;;;;;;;3.82;100.00;102502.94;4917914;29;20036;-60
2023/01/26 08:58:15;;;;;;;29.98;5.28;;;;;;;3.80;100.00;102484.66;4931353;29;20392;-60
2023/01/26 09:00:41;;;;;;;34.17;5.50;;;;;;;3.93;100.00;102504.06;4933681;29;20040;-60
2023/01/26 09:03:07;;;;;;;24.35;5.03;;;;;;;3.65;100.00;102452.22;4934945;29;20150;-60
2023/01/26 09:05:34;;;;;;;37.38;6.78;;;;;;;3.58;100.00;102424.28;4918020;29;20080;-60
2023/01/26 09:08:00;;;;;;;34.75;5.03;;;;;;;3.96;100.00;102481.56;4934901;29;20039;-61
2023/01/26 09:10:25;;;;;;;33.78;5.40;;;;;;;3.84;100.00;102463.06;4917643;29;20055;-61
2023/01/26 09:12:51;;;;;;;27.17;4.72;;;;;;;4.22;100.00;102515.94;4933813;29;20043;-61
2023/01/26 09:15:16;;;;;;;28.83;4.22;;;;;;;3.86;100.00;102443.13;4934953;29;20063;-61
2023/01/26 09:17:42;;;;;;;33.33;5.20;;;;;;;4.26;100.00;102514.28;4933225;29;20416;-56
2023/01/26 09:20:09;;;;;;;26.33;5.03;;;;;;;4.39;100.00;102524.97;4934278;29;20091;-57
2023/01/26 09:22:34;;;;;;;28.75;5.18;;;;;;;4.26;100.00;102467.38;4932909;29;20039;-55
2023/01/26 09:25:00;;;;;;;20.05;4.97;;;;;;;4.76;100.00;102523.06;4934289;29;20387;-57
2023/01/26 09:27:25;;;;;;;30.17;5.32;;;;;;;4.80;100.00;102535.31;4933952;29;20130;-56
2023/01/26 09:29:51;;;;;;;31.00;5.07;;;;;;;4.34;100.00;102452.75;4934040;29;20118;-56
2023/01/26 09:32:17;;;;;;;32.35;5.35;;;;;;;4.30;100.00;102443.09;4934330;29;20039;-57
2023/01/26 09:34:42;;;;;;;32.05;5.47;;;;;;;4.76;100.00;102525.69;4934139;29;20035;-55
2023/01/26 09:37:07;;;;;;;27.10;4.78;;;;;;;4.76;100.00;102528.28;4934071;29;20123;-56
2023/01/26 09:39:33;;;;;;;22.05;4.72;;;;;;;4.81;100.00;102526.63;4934279;29;20035;-55
2023/01/26 09:42:16;;;;;;;23.13;4.93;;;;;;;4.82;100.00;102528.38;4933830;29;20118;-56
2023/01/26 09:44:51;;;;;;;24.38;4.65;;;;;;;4.84;100.00;102522.34;4934179;29;20447;-53
2023/01/26 09:47:25;;;;;;;26.73;4.85;;;;;;;4.90;100.00;102518.97;4932154;29;20435;-55
2023/01/26 09:49:59;;;;;;;25.00;4.90;;;;;;;4.72;100.00;102479.50;4931837;29;20032;-56
2023/01/26 09:52:38;;;;;;;27.98;4.60;;;;;;;5.01;100.00;102527.88;4935569;29;20039;-55
2023/01/26 09:55:13;;;;;;;22.25;4.65;;;;;;;4.82;100.00;102471.88;4939934;29;20464;-55
2023/01/26 09:57:49;;;;;;;23.25;4.63;;;;;;;5.12;100.00;102528.91;4938591;29;20435;-55
2023/01/26 10:00:21;;;;;;;25.33;4.70;;;;;;;5.14;100.00;102524.59;4949692;29;20035;-57
2023/01/26 10:03:17;;;;;;;30.50;5.22;;;;;;;5.22;100.00;102525.63;4937861;29;20468;-57
2023/01/26 10:05:42;;;;;;;28.80;4.47;;;;;;;5.29;100.00;102526.56;4939911;29;20114;-57
2023/01/26 10:08:12;;;;;;;30.42;5.50;;;;;;;4.36;100.00;102365.91;4949623;29;20440;-58
2023/01/26 10:10:44;;;;;;;17.83;3.88;;;;;;;5.20;100.00;102497.69;4940991;29;20031;-56
2023/01/26 10:13:13;;;;;;;29.50;5.13;;;;;;;5.40;100.00;102519.81;4946464;29;20472;-55
2023/01/26 10:15:42;;;;;;;20.27;3.83;;;;;;;4.90;100.00;102430.25;4948283;29;20148;-58
2023/01/26 10:18:34;;;;;;;24.70;4.65;;;;;;;5.03;100.00;102450.47;4938261;28;20067;-58
2023/01/26 10:21:01;;;;;;;25.15;4.80;;;;;;;4.97;100.00;102439.94;4947874;29;20047;-57
2023/01/26 10:23:32;;;;;;;24.35;4.10;;;;;;;5.53;100.00;102538.28;4945921;29;20446;-53
2023/01/26 10:26:10;;;;;;;25.90;4.70;;;;;;;5.57;100.00;102527.00;4938997;29;20123;-58
2023/01/26 10:28:36;;;;;;;25.45;4.18;;;;;;;5.58;100.00;102531.41;4923473;29;20027;-56
2023/01/26 10:31:03;;;;;;;22.88;3.55;;;;;;;5.61;100.00;102535.78;4946655;29;20083;-58
2023/01/26 10:33:34;;;;;;;18.95;3.53;;;;;;;5.63;100.00;102544.53;4945764;29;20035;-59
2023/01/26 10:36:00;;;;;;;20.98;4.00;;;;;;;5.65;100.00;102550.66;4938719;29;20035;-59
2023/01/26 10:38:28;;;;;;;16.83;3.08;;;;;;;5.31;100.00;102465.69;4939987;29;20031;-58
2023/01/26 10:40:54;;;;;;;24.20;4.65;;;;;;;5.68;100.00;102542.88;4933581;29;20063;-58
2023/01/26 10:43:20;;;;;;;23.45;4.40;;;;;;;5.87;100.00;102559.69;4934809;29;20068;-57
2023/01/26 10:45:46;;;;;;;22.85;4.57;;;;;;;5.87;100.00;102552.75;4934466;29;20031;-58
2023/01/26 10:48:20;;;;;;;13.82;3.65;;;;;;;5.52;100.00;102481.69;4933959;29;20035;-58
2023/01/26 10:50:46;;;;;;;29.63;3.63;;;;;;;5.52;100.00;102475.56;4932928;29;20035;-58
2023/01/26 10:53:32;;;;;;;21.15;3.42;;;;;;;6.29;100.00;102562.00;4917585;29;20036;-58
2023/01/26 10:56:02;;;;;;;24.27;3.72;;;;;;;6.09;100.00;102497.28;4933765;29;20318;-59
2023/01/26 10:58:44;;;;;;;22.52;3.90;;;;;;;6.49;100.00;102557.91;4934815;29;20035;-60
2023/01/26 11:01:11;;;;;;;24.13;4.30;;;;;;;6.52;100.00;102565.78;4933484;29;20472;-59
2023/01/26 11:03:37;;;;;;;19.27;4.95;;;;;;;6.47;100.00;102575.31;4933506;29;20039;-59
2023/01/26 11:06:16;;;;;;;16.10;3.97;;;;;;;6.25;100.00;102547.16;4933198;29;20035;-58
2023/01/26 11:08:42;;;;;;;13.85;4.05;;;;;;;6.31;100.00;102578.59;4934272;29;20506;-59
2023/01/26 11:11:34;;;;;;;15.30;3.60;;;;;;;6.28;100.00;102561.13;4935394;29;20032;-56
2023/01/26 11:14:16;;;;;;;;;;;;;;;6.27;100.00;102556.78;4930864;29;20119;-57
2023/01/26 11:16:56;;;;;;;9.95;2.67;;;;;;;6.28;100.00;102560.25;4934065;29;20457;-57
2023/01/26 11:19:36;;;;;;;21.00;3.78;;;;;;;6.30;100.00;102548.09;4934256;29;20563;-57
2023/01/26 11:22:07;;;;;;;19.88;4.28;;;;;;;6.27;100.00;102545.44;4933232;29;20122;-58
2023/01/26 11:24:43;;;;;;;18.88;3.22;;;;;;;6.39;100.00;102563.91;4934325;29;20032;-57
2023/01/26 11:27:09;;;;;;;11.13;3.53;;;;;;;6.44;100.00;102572.66;4932853;29;20091;-57
2023/01/26 11:29:48;;;;;;;19.33;2.92;;;;;;;6.47;100.00;102565.75;4933561;29;20031;-57
2023/01/26 11:32:55;;;;;;;14.80;2.88;;;;;;;6.62;100.00;102562.44;4916449;29;20040;-57
2023/01/26 11:35:31;;;;;;;16.48;3.22;;;;;;;7.00;100.00;102571.56;4933212;29;20043;-58
2023/01/26 11:38:08;;;;;;;17.27;3.63;;;;;;;7.26;100.00;102561.31;4932670;29;20050;-58
2023/01/26 11:40:36;;;;;;;14.40;3.17;;;;;;;7.30;100.00;102555.22;4934481;29;20447;-59
2023/01/26 11:43:31;;;;;;;12.43;2.65;;;;;;;7.33;100.00;102571.84;4931888;29;20043;-58
2023/01/26 11:46:30;;;;;;;18.05;3.80;;;;;;;7.39;100.00;102573.63;4933530;29;20034;-59
2023/01/26 11:49:09;;;;;;;21.80;4.10;;;;;;;7.50;100.00;102566.72;4933698;29;20055;-58
2023/01/26 11:51:44;;;;;;;20.55;3.55;;;;;;;7.72;100.00;102586.13;4934645;29;20056;-57
2023/01/26 11:54:15;;;;;;;17.85;3.58;;;;;;;7.73;100.00;102583.53;4934649;29;20115;-57
2023/01/26 11:56:49;;;;;;;10.65;2.90;;;;;;;7.73;100.00;102564.31;4934888;29;20087;-58
2023/01/26 11:59:21;;;;;;;10.50;3.20;;;;;;;7.44;100.00;102503.84;4933482;29;20039;-58
2023/01/26 12:01:55;;;;;;;13.07;2.97;;;;;;;7.68;100.00;102559.00;4917020;29;20416;-58
2023/01/26 12:04:21;;;;;;;12.23;2.40;;;;;;;7.61;100.00;102572.06;4946541;29;20041;-59